createdAt,value
2023-04-11T00:00:04.490Z,16.73
2023-04-11T00:03:11.784Z,16.74
2023-04-11T00:04:04.694Z,16.77
2023-04-11T00:05:04.558Z,16.81
2023-04-11T00:06:04.502Z,16.79
2023-04-11T00:07:04.496Z,16.70
2023-04-11T00:08:04.493Z,16.69
2023-04-11T00:09:04.489Z,16.71
2023-04-11T00:10:04.543Z,16.76
2023-04-11T00:11:04.523Z,16.81
2023-04-11T00:12:04.512Z,16.83
2023-04-11T00:13:04.557Z,16.86
2023-04-11T00:14:04.529Z,16.87
2023-04-11T00:15:04.570Z,16.89
2023-04-11T00:16:04.556Z,16.90
2023-04-11T00:17:04.505Z,16.92
2023-04-11T00:19:04.546Z,16.93
2023-04-11T00:20:04.522Z,16.91
2023-04-11T00:21:04.576Z,16.93
2023-04-11T00:24:04.539Z,16.95
2023-04-11T00:25:04.565Z,16.97
2023-04-11T00:26:04.602Z,16.99
2023-04-11T00:27:04.574Z,17.01
2023-04-11T00:28:04.569Z,16.98
2023-04-11T00:29:04.607Z,16.97
2023-04-11T00:30:04.563Z,16.96
2023-04-11T00:31:04.595Z,16.98
2023-04-11T00:33:04.614Z,16.99
2023-04-11T00:35:04.581Z,16.97
2023-04-11T00:36:04.667Z,16.99
2023-04-11T00:37:04.628Z,16.97
2023-04-11T00:38:04.592Z,16.95
2023-04-11T00:39:04.626Z,16.94
2023-04-11T00:40:04.583Z,16.93
2023-04-11T00:42:04.639Z,16.90
2023-04-11T00:43:04.572Z,16.88
2023-04-11T00:44:04.619Z,16.87
2023-04-11T00:45:04.599Z,16.83
2023-04-11T00:46:04.611Z,16.81
2023-04-11T00:47:04.625Z,16.79
2023-04-11T00:48:04.617Z,16.78
2023-04-11T00:49:04.654Z,16.75
2023-04-11T00:50:04.659Z,16.74
2023-04-11T00:51:04.627Z,16.77
2023-04-11T00:52:04.619Z,16.80
2023-04-11T00:53:04.646Z,16.87
2023-04-11T00:54:04.610Z,16.93
2023-04-11T00:55:04.644Z,16.96
2023-04-11T00:58:04.632Z,16.97
2023-04-11T01:00:04.743Z,16.96
2023-04-11T01:02:04.714Z,16.94
2023-04-11T01:03:04.832Z,16.92
2023-04-11T01:04:04.749Z,16.93
2023-04-11T01:05:04.696Z,16.92
2023-04-11T01:06:04.668Z,16.86
2023-04-11T01:07:04.633Z,16.84
2023-04-11T01:08:04.679Z,16.83
2023-04-11T01:09:04.646Z,16.80
2023-04-11T01:10:04.657Z,16.78
2023-04-11T01:11:04.671Z,16.77
2023-04-11T01:12:04.653Z,16.74
2023-04-11T01:13:04.723Z,16.71
2023-04-11T01:14:04.675Z,16.67
2023-04-11T01:15:04.676Z,16.61
2023-04-11T01:16:04.723Z,16.57
2023-04-11T01:17:04.907Z,16.55
2023-04-11T01:18:04.748Z,16.51
2023-04-11T01:19:04.714Z,16.49
2023-04-11T01:20:04.693Z,16.46
2023-04-11T01:21:04.739Z,16.47
2023-04-11T01:22:04.698Z,16.43
2023-04-11T01:23:04.682Z,16.44
2023-04-11T01:24:04.734Z,16.42
2023-04-11T01:25:04.708Z,16.24
2023-04-11T01:26:04.738Z,16.16
2023-04-11T01:27:04.726Z,16.13
2023-04-11T01:29:04.729Z,16.11
2023-04-11T01:30:04.705Z,16.07
2023-04-11T01:31:04.779Z,16.05
2023-04-11T01:32:04.746Z,16.04
2023-04-11T01:33:04.712Z,16.06
2023-04-11T01:34:04.741Z,16.09
2023-04-11T01:35:04.742Z,16.06
2023-04-11T01:36:05.944Z,16.09
2023-04-11T01:37:04.800Z,16.05
2023-04-11T01:38:04.730Z,16.08
2023-04-11T01:39:04.758Z,16.04
2023-04-11T01:40:04.720Z,15.98
2023-04-11T01:41:04.741Z,15.94
2023-04-11T01:42:04.785Z,15.90
2023-04-11T01:44:04.740Z,15.93
2023-04-11T01:45:04.772Z,15.94
2023-04-11T01:46:04.737Z,15.93
2023-04-11T01:47:04.800Z,15.95
2023-04-11T01:48:04.828Z,15.98
2023-04-11T01:49:04.792Z,15.87
2023-04-11T01:51:04.753Z,15.85
2023-04-11T01:52:04.743Z,15.88
2023-04-11T01:53:04.822Z,15.93
2023-04-11T01:54:04.775Z,15.98
2023-04-11T01:55:04.826Z,16.03
2023-04-11T01:56:04.769Z,16.04
2023-04-11T01:58:04.819Z,15.87
2023-04-11T01:59:04.800Z,15.85
2023-04-11T02:00:04.796Z,15.82
2023-04-11T02:01:04.849Z,15.80
2023-04-11T02:02:05.003Z,15.82
2023-04-11T02:03:04.915Z,15.80
2023-04-11T02:04:04.918Z,15.79
2023-04-11T02:06:04.780Z,15.82
2023-04-11T02:09:04.853Z,15.85
2023-04-11T02:11:04.852Z,15.84
2023-04-11T02:12:04.824Z,15.83
2023-04-11T02:13:06.160Z,15.87
2023-04-11T02:14:04.863Z,15.89
2023-04-11T02:15:04.826Z,15.95
2023-04-11T02:16:04.885Z,15.98
2023-04-11T02:18:04.873Z,16.00
2023-04-11T02:21:04.846Z,15.98
2023-04-11T02:22:04.868Z,15.91
2023-04-11T02:23:04.837Z,15.82
2023-04-11T02:24:04.964Z,15.72
2023-04-11T02:25:04.833Z,15.63
2023-04-11T02:26:04.850Z,15.62
2023-04-11T02:27:04.886Z,15.63
2023-04-11T02:28:07.346Z,15.65
2023-04-11T02:29:04.879Z,15.67
2023-04-11T02:30:04.886Z,15.66
2023-04-11T02:31:04.945Z,15.58
2023-04-11T02:32:05.120Z,15.56
2023-04-11T02:33:04.898Z,15.54
2023-04-11T02:34:04.865Z,15.56
2023-04-11T02:35:04.897Z,15.58
2023-04-11T02:36:04.933Z,15.64
2023-04-11T02:37:04.903Z,15.54
2023-04-11T02:38:04.886Z,15.47
2023-04-11T02:39:04.866Z,15.43
2023-04-11T02:40:04.942Z,15.46
2023-04-11T02:41:04.912Z,15.41
2023-04-11T02:42:04.883Z,15.37
2023-04-11T02:43:04.932Z,15.39
2023-04-11T02:44:04.922Z,15.31
2023-04-11T02:45:04.941Z,15.34
2023-04-11T02:46:12.682Z,15.32
2023-04-11T02:47:05.014Z,15.35
2023-04-11T02:48:05.008Z,15.34
2023-04-11T02:49:04.903Z,15.29
2023-04-11T02:50:06.497Z,15.31
2023-04-11T02:51:04.961Z,15.27
2023-04-11T02:52:04.937Z,15.22
2023-04-11T02:53:04.958Z,15.16
2023-04-11T02:54:04.913Z,15.04
2023-04-11T02:55:04.912Z,15.01
2023-04-11T02:56:04.960Z,14.99
2023-04-11T02:57:04.923Z,14.91
2023-04-11T02:59:04.969Z,14.99
2023-04-11T03:00:05.025Z,15.02
2023-04-11T03:01:04.977Z,14.96
2023-04-11T03:02:05.019Z,14.95
2023-04-11T03:03:05.018Z,14.92
2023-04-11T03:04:05.053Z,14.93
2023-04-11T03:05:04.928Z,14.90
2023-04-11T03:07:05.009Z,14.94
2023-04-11T03:08:04.966Z,14.98
2023-04-11T03:09:04.983Z,15.01
2023-04-11T03:10:04.968Z,14.99
2023-04-11T03:11:04.959Z,15.01
2023-04-11T03:12:04.985Z,15.03
2023-04-11T03:13:04.930Z,15.04
2023-04-11T03:14:05.022Z,15.03
2023-04-11T03:16:05.026Z,15.00
2023-04-11T03:17:05.016Z,15.01
2023-04-11T03:18:05.039Z,14.99
2023-04-11T03:19:04.964Z,15.03
2023-04-11T03:20:05.051Z,15.08
2023-04-11T03:21:04.965Z,15.02
2023-04-11T03:22:05.036Z,15.03
2023-04-11T03:23:04.984Z,14.90
2023-04-11T03:24:04.980Z,14.82
2023-04-11T03:25:05.050Z,14.77
2023-04-11T03:26:04.988Z,14.76
2023-04-11T03:27:06.598Z,14.69
2023-04-11T03:28:05.020Z,14.58
2023-04-11T03:29:05.013Z,14.45
2023-04-11T03:30:05.043Z,14.37
2023-04-11T03:31:05.086Z,14.33
2023-04-11T03:32:04.999Z,14.29
2023-04-11T03:33:05.050Z,14.30
2023-04-11T03:34:05.036Z,14.24
2023-04-11T03:35:05.049Z,14.06
2023-04-11T03:36:05.079Z,13.91
2023-04-11T03:37:05.044Z,13.85
2023-04-11T03:38:05.029Z,13.66
2023-04-11T03:40:05.055Z,13.59
2023-04-11T03:41:05.079Z,13.50
2023-04-11T03:42:05.053Z,13.35
2023-04-11T03:43:05.103Z,13.29
2023-04-11T03:44:05.068Z,13.24
2023-04-11T03:45:05.063Z,13.13
2023-04-11T03:46:05.106Z,13.12
2023-04-11T03:47:05.236Z,13.09
2023-04-11T03:48:05.098Z,13.11
2023-04-11T03:49:05.113Z,13.06
2023-04-11T03:50:05.064Z,13.09
2023-04-11T03:51:05.095Z,13.05
2023-04-11T03:53:05.084Z,13.08
2023-04-11T03:54:05.067Z,12.99
2023-04-11T03:55:05.086Z,12.94
2023-04-11T03:56:05.081Z,12.91
2023-04-11T03:57:05.125Z,12.93
2023-04-11T03:58:05.076Z,12.87
2023-04-11T03:59:05.106Z,12.88
2023-04-11T04:00:05.085Z,12.87
2023-04-11T04:01:05.121Z,12.88
2023-04-11T04:02:05.184Z,12.86
2023-04-11T04:03:05.194Z,12.84
2023-04-11T04:04:07.011Z,12.90
2023-04-11T04:05:05.228Z,12.98
2023-04-11T04:06:05.113Z,13.01
2023-04-11T04:07:05.147Z,12.89
2023-04-11T04:08:05.116Z,12.83
2023-04-11T04:09:05.115Z,12.81
2023-04-11T04:10:05.157Z,12.76
2023-04-11T04:11:05.084Z,12.74
2023-04-11T04:12:05.139Z,12.70
2023-04-11T04:13:05.108Z,12.61
2023-04-11T04:14:05.134Z,12.68
2023-04-11T04:15:05.180Z,12.67
2023-04-11T04:17:05.143Z,12.65
2023-04-11T04:18:05.284Z,12.70
2023-04-11T04:19:05.135Z,12.68
2023-04-11T04:20:05.186Z,12.67
2023-04-11T04:21:05.152Z,12.72
2023-04-11T04:22:05.141Z,12.67
2023-04-11T04:24:05.160Z,12.70
2023-04-11T04:25:05.192Z,12.66
2023-04-11T04:27:05.125Z,12.62
2023-04-11T04:28:05.186Z,12.59
2023-04-11T04:29:05.170Z,12.55
2023-04-11T04:30:05.166Z,12.57
2023-04-11T04:31:05.203Z,12.55
2023-04-11T04:32:05.198Z,12.51
2023-04-11T04:33:05.243Z,12.55
2023-04-11T04:34:05.178Z,12.49
2023-04-11T04:35:05.178Z,12.47
2023-04-11T04:36:05.278Z,12.56
2023-04-11T04:37:05.171Z,12.60
2023-04-11T04:38:05.186Z,12.56
2023-04-11T04:39:05.193Z,12.62
2023-04-11T04:40:05.187Z,12.66
2023-04-11T04:41:07.031Z,12.73
2023-04-11T04:42:05.185Z,12.84
2023-04-11T04:43:05.161Z,12.94
2023-04-11T04:44:05.229Z,12.92
2023-04-11T04:45:05.173Z,12.96
2023-04-11T04:46:05.280Z,13.00
2023-04-11T04:47:05.231Z,13.02
2023-04-11T04:48:05.270Z,13.07
2023-04-11T04:49:05.239Z,13.09
2023-04-11T04:50:05.214Z,13.13
2023-04-11T04:51:05.238Z,13.20
2023-04-11T04:52:05.227Z,13.25
2023-04-11T04:53:05.200Z,13.33
2023-04-11T04:54:05.260Z,13.41
2023-04-11T04:55:05.228Z,13.45
2023-04-11T04:56:05.205Z,13.48
2023-04-11T04:57:05.263Z,13.50
2023-04-11T04:58:05.234Z,13.53
2023-04-11T04:59:05.235Z,13.54
2023-04-11T05:00:05.255Z,13.57
2023-04-11T05:01:05.272Z,13.56
2023-04-11T05:02:05.366Z,13.48
2023-04-11T05:03:05.350Z,13.46
2023-04-11T05:04:05.383Z,13.43
2023-04-11T05:05:05.297Z,13.39
2023-04-11T05:06:05.228Z,13.33
2023-04-11T05:07:05.273Z,13.22
2023-04-11T05:08:05.329Z,13.05
2023-04-11T05:09:05.274Z,12.92
2023-04-11T05:10:05.289Z,12.85
2023-04-11T05:12:07.045Z,12.89
2023-04-11T05:13:05.336Z,12.91
2023-04-11T05:14:05.294Z,12.89
2023-04-11T05:15:05.318Z,12.88
2023-04-11T05:16:05.319Z,12.83
2023-04-11T05:17:05.331Z,12.80
2023-04-11T05:18:07.270Z,12.79
2023-04-11T05:19:05.296Z,12.78
2023-04-11T05:20:05.301Z,12.80
2023-04-11T05:21:05.316Z,12.81
2023-04-11T05:22:05.285Z,12.76
2023-04-11T05:23:05.315Z,12.79
2023-04-11T05:24:05.288Z,12.80
2023-04-11T05:25:05.413Z,12.81
2023-04-11T05:26:05.311Z,12.82
2023-04-11T05:27:05.296Z,12.80
2023-04-11T05:28:05.307Z,12.77
2023-04-11T05:29:05.346Z,12.64
2023-04-11T05:30:05.294Z,12.54
2023-04-11T05:31:05.363Z,12.51
2023-04-11T05:32:05.303Z,12.46
2023-04-11T05:33:05.363Z,12.47
2023-04-11T05:34:05.342Z,12.42
2023-04-11T05:35:05.347Z,12.44
2023-04-11T05:36:05.410Z,12.49
2023-04-11T05:37:05.345Z,12.53
2023-04-11T05:38:05.328Z,12.54
2023-04-11T05:39:05.362Z,12.46
2023-04-11T05:40:05.358Z,12.43
2023-04-11T05:41:05.357Z,12.44
2023-04-11T05:42:07.840Z,12.47
2023-04-11T05:43:05.352Z,12.48
2023-04-11T05:44:05.381Z,12.50
2023-04-11T05:45:05.363Z,12.44
2023-04-11T05:46:05.381Z,12.33
2023-04-11T05:47:05.362Z,12.26
2023-04-11T05:49:05.341Z,12.23
2023-04-11T05:50:05.410Z,12.15
2023-04-11T05:51:05.347Z,12.14
2023-04-11T05:52:05.426Z,12.11
2023-04-11T05:53:05.380Z,12.09
2023-04-11T05:54:05.374Z,12.08
2023-04-11T05:55:07.499Z,12.09
2023-04-11T05:57:05.420Z,12.07
2023-04-11T05:58:05.432Z,12.08
2023-04-11T05:59:05.395Z,12.04
2023-04-11T06:00:05.430Z,11.89
2023-04-11T06:01:05.414Z,11.86
2023-04-11T06:02:05.482Z,11.85
2023-04-11T06:03:05.493Z,11.89
2023-04-11T06:04:05.523Z,11.92
2023-04-11T06:05:05.445Z,11.98
2023-04-11T06:06:05.398Z,11.95
2023-04-11T06:07:05.402Z,11.96
2023-04-11T06:08:05.431Z,11.97
2023-04-11T06:09:05.389Z,12.04
2023-04-11T06:10:05.408Z,12.08
2023-04-11T06:11:05.411Z,12.10
2023-04-11T06:12:05.421Z,12.13
2023-04-11T06:13:05.455Z,12.14
2023-04-11T06:14:05.413Z,12.15
2023-04-11T06:15:05.425Z,12.17
2023-04-11T06:16:05.481Z,12.21
2023-04-11T06:17:05.434Z,12.19
2023-04-11T06:18:05.485Z,12.23
2023-04-11T06:19:05.459Z,12.26
2023-04-11T06:20:06.235Z,12.34
2023-04-11T06:21:05.480Z,12.33
2023-04-11T06:22:05.427Z,12.31
2023-04-11T06:23:05.444Z,12.27
2023-04-11T06:24:05.438Z,12.23
2023-04-11T06:25:05.447Z,12.20
2023-04-11T06:26:05.487Z,12.15
2023-04-11T06:27:05.467Z,12.17
2023-04-11T06:28:05.469Z,12.19
2023-04-11T06:29:05.461Z,12.14
2023-04-11T06:30:05.451Z,12.17
2023-04-11T06:31:05.541Z,12.23
2023-04-11T06:32:07.726Z,12.26
2023-04-11T06:33:05.572Z,12.30
2023-04-11T06:34:05.520Z,12.36
2023-04-11T06:37:05.528Z,12.38
2023-04-11T06:38:05.473Z,12.35
2023-04-11T06:39:05.487Z,12.33
2023-04-11T06:40:05.475Z,12.26
2023-04-11T06:41:05.498Z,12.23
2023-04-11T06:43:05.602Z,12.25
2023-04-11T06:44:05.493Z,12.28
2023-04-11T06:45:06.317Z,12.32
2023-04-11T06:46:05.526Z,12.35
2023-04-11T06:47:05.524Z,12.38
2023-04-11T06:48:05.565Z,12.43
2023-04-11T06:49:05.529Z,12.47
2023-04-11T06:50:05.521Z,12.44
2023-04-11T06:51:05.508Z,12.42
2023-04-11T06:52:05.535Z,12.40
2023-04-11T06:53:05.523Z,12.34
2023-04-11T06:54:05.520Z,12.31
2023-04-11T06:55:05.555Z,12.25
2023-04-11T06:56:05.561Z,12.26
2023-04-11T06:57:05.518Z,12.31
2023-04-11T06:58:05.541Z,12.33
2023-04-11T06:59:05.550Z,12.37
2023-04-11T07:00:05.544Z,12.44
2023-04-11T07:01:05.572Z,12.51
2023-04-11T07:02:05.647Z,12.55
2023-04-11T07:03:05.746Z,12.54
2023-04-11T07:04:05.584Z,12.56
2023-04-11T07:05:05.547Z,12.58
2023-04-11T07:06:05.602Z,12.60
2023-04-11T07:07:05.569Z,12.66
2023-04-11T07:08:05.555Z,12.65
2023-04-11T07:09:07.906Z,12.64
2023-04-11T07:11:05.592Z,12.63
2023-04-11T07:12:05.576Z,12.61
2023-04-11T07:13:05.594Z,12.59
2023-04-11T07:14:05.637Z,12.52
2023-04-11T07:15:05.583Z,12.38
2023-04-11T07:16:05.654Z,12.33
2023-04-11T07:17:05.568Z,12.16
2023-04-11T07:18:05.645Z,12.09
2023-04-11T07:19:05.627Z,12.05
2023-04-11T07:20:05.610Z,11.99
2023-04-11T07:21:05.587Z,12.00
2023-04-11T07:22:05.630Z,11.99
2023-04-11T07:23:05.600Z,12.01
2023-04-11T07:24:05.633Z,12.03
2023-04-11T07:25:05.607Z,11.99
2023-04-11T07:26:05.621Z,11.95
2023-04-11T07:28:05.626Z,11.84
2023-04-11T07:29:07.241Z,11.76
2023-04-11T07:31:05.624Z,11.79
2023-04-11T07:32:05.648Z,11.84
2023-04-11T07:33:05.699Z,11.88
2023-04-11T07:34:05.618Z,11.93
2023-04-11T07:35:05.646Z,11.97
2023-04-11T07:36:05.740Z,12.02
2023-04-11T07:37:05.617Z,12.03
2023-04-11T07:38:05.614Z,12.04
2023-04-11T07:39:05.646Z,12.06
2023-04-11T07:40:05.634Z,12.07
2023-04-11T07:44:05.648Z,12.02
2023-04-11T07:45:05.709Z,12.01
2023-04-11T07:46:08.222Z,12.02
2023-04-11T07:48:05.693Z,12.04
2023-04-11T07:49:05.657Z,12.01
2023-04-11T07:50:05.651Z,12.00
2023-04-11T07:51:05.687Z,11.97
2023-04-11T07:52:05.679Z,11.89
2023-04-11T07:53:05.705Z,11.88
2023-04-11T07:54:05.665Z,11.93
2023-04-11T07:55:05.678Z,12.00
2023-04-11T07:56:05.711Z,11.98
2023-04-11T07:57:05.694Z,12.08
2023-04-11T07:58:05.677Z,12.07
2023-04-11T07:59:05.684Z,12.05
2023-04-11T08:01:05.743Z,11.97
2023-04-11T08:02:05.767Z,11.99
2023-04-11T08:03:06.048Z,12.02
2023-04-11T08:04:06.122Z,12.04
2023-04-11T08:05:05.840Z,12.03
2023-04-11T08:06:05.726Z,11.96
2023-04-11T08:07:05.701Z,11.89
2023-04-11T08:08:05.715Z,11.88
2023-04-11T08:09:05.759Z,11.90
2023-04-11T08:10:05.718Z,11.92
2023-04-11T08:11:05.728Z,11.87
2023-04-11T08:12:05.738Z,11.83
2023-04-11T08:13:05.709Z,11.89
2023-04-11T08:14:05.768Z,11.92
2023-04-11T08:15:05.721Z,11.98
2023-04-11T08:16:05.749Z,12.02
2023-04-11T08:17:14.689Z,11.95
2023-04-11T08:18:05.807Z,11.90
2023-04-11T08:19:05.769Z,11.84
2023-04-11T08:20:05.760Z,11.83
2023-04-11T08:21:05.714Z,11.76
2023-04-11T08:22:05.762Z,11.71
2023-04-11T08:23:08.344Z,11.72
2023-04-11T08:24:05.746Z,11.67
2023-04-11T08:25:05.809Z,11.71
2023-04-11T08:26:05.761Z,11.74
2023-04-11T08:27:05.771Z,11.75
2023-04-11T08:28:05.780Z,11.80
2023-04-11T08:29:05.761Z,11.84
2023-04-11T08:30:05.767Z,11.89
2023-04-11T08:31:05.820Z,11.95
2023-04-11T08:32:05.752Z,11.98
2023-04-11T08:33:05.985Z,12.02
2023-04-11T08:34:07.262Z,12.08
2023-04-11T08:35:05.831Z,12.14
2023-04-11T08:36:05.829Z,12.18
2023-04-11T08:37:05.770Z,12.23
2023-04-11T08:38:05.800Z,12.29
2023-04-11T08:40:05.852Z,12.22
2023-04-11T08:41:05.791Z,12.14
2023-04-11T08:42:05.783Z,12.15
2023-04-11T08:43:05.847Z,12.06
2023-04-11T08:44:05.794Z,12.02
2023-04-11T08:45:05.842Z,12.00
2023-04-11T08:46:05.878Z,12.04
2023-04-11T08:47:05.786Z,12.12
2023-04-11T08:48:05.900Z,12.20
2023-04-11T08:49:05.812Z,12.26
2023-04-11T08:50:05.809Z,12.28
2023-04-11T08:51:05.835Z,12.30
2023-04-11T08:52:05.803Z,12.27
2023-04-11T08:53:05.810Z,12.28
2023-04-11T08:54:05.866Z,12.23
2023-04-11T08:55:05.809Z,12.20
2023-04-11T08:56:05.880Z,12.19
2023-04-11T08:57:05.826Z,12.20
2023-04-11T08:58:05.806Z,12.25
2023-04-11T08:59:05.888Z,12.29
2023-04-11T09:00:08.565Z,12.33
2023-04-11T09:04:05.900Z,12.37
2023-04-11T09:05:05.880Z,12.43
2023-04-11T09:06:05.863Z,12.53
2023-04-11T09:07:05.870Z,12.63
2023-04-11T09:09:05.877Z,12.66
2023-04-11T09:10:05.878Z,12.71
2023-04-11T09:11:05.886Z,12.73
2023-04-11T09:12:05.912Z,12.78
2023-04-11T09:13:05.875Z,12.82
2023-04-11T09:14:05.902Z,12.85
2023-04-11T09:15:05.905Z,12.92
2023-04-11T09:16:05.977Z,12.93
2023-04-11T09:17:05.893Z,12.95
2023-04-11T09:19:05.891Z,12.93
2023-04-11T09:20:05.928Z,12.94
2023-04-11T09:21:05.913Z,12.86
2023-04-11T09:22:05.901Z,12.65
2023-04-11T09:23:05.916Z,12.60
2023-04-11T09:24:05.907Z,12.59
2023-04-11T09:25:05.998Z,12.68
2023-04-11T09:26:05.911Z,12.79
2023-04-11T09:27:05.936Z,12.93
2023-04-11T09:28:05.939Z,13.06
2023-04-11T09:29:05.910Z,13.16
2023-04-11T09:30:05.894Z,13.26
2023-04-11T09:31:05.992Z,13.25
2023-04-11T09:33:05.949Z,13.31
2023-04-11T09:34:05.925Z,13.33
2023-04-11T09:35:05.913Z,13.35
2023-04-11T09:36:05.976Z,13.25
2023-04-11T09:37:08.785Z,13.16
2023-04-11T09:38:05.980Z,13.06
2023-04-11T09:39:05.930Z,13.05
2023-04-11T09:40:05.930Z,12.97
2023-04-11T09:41:05.990Z,12.90
2023-04-11T09:42:05.952Z,12.92
2023-04-11T09:43:05.934Z,12.93
2023-04-11T09:44:06.003Z,12.95
2023-04-11T09:45:05.983Z,12.93
2023-04-11T09:47:06.014Z,13.00
2023-04-11T09:48:06.055Z,13.01
2023-04-11T09:49:06.219Z,13.07
2023-04-11T09:50:05.960Z,13.12
2023-04-11T09:51:05.964Z,12.98
2023-04-11T09:52:06.018Z,12.95
2023-04-11T09:54:06.487Z,13.01
2023-04-11T09:55:06.011Z,13.08
2023-04-11T09:56:05.986Z,13.19
2023-04-11T09:57:05.957Z,13.28
2023-04-11T09:58:05.978Z,13.34
2023-04-11T09:59:06.022Z,13.37
2023-04-11T10:00:06.036Z,13.38
2023-04-11T10:01:06.004Z,13.35
2023-04-11T10:03:06.029Z,13.37
2023-04-11T10:04:05.970Z,13.38
2023-04-11T10:05:06.092Z,13.39
2023-04-11T10:06:05.988Z,13.38
2023-04-11T10:07:05.989Z,13.41
2023-04-11T10:08:06.034Z,13.46
2023-04-11T10:09:06.027Z,13.48
2023-04-11T10:10:06.000Z,13.56
2023-04-11T10:11:06.013Z,13.64
2023-04-11T10:12:06.028Z,13.72
2023-04-11T10:13:06.062Z,13.76
2023-04-11T10:14:08.980Z,13.75
2023-04-11T10:15:06.067Z,13.82
2023-04-11T10:16:06.108Z,13.93
2023-04-11T10:17:06.033Z,13.95
2023-04-11T10:18:06.133Z,13.98
2023-04-11T10:19:06.046Z,14.03
2023-04-11T10:20:06.091Z,14.09
2023-04-11T10:21:06.031Z,14.20
2023-04-11T10:22:06.048Z,14.26
2023-04-11T10:23:06.061Z,14.27
2023-04-11T10:24:06.037Z,14.32
2023-04-11T10:25:06.076Z,14.33
2023-04-11T10:26:06.085Z,14.29
2023-04-11T10:28:06.035Z,14.17
2023-04-11T10:29:06.064Z,14.12
2023-04-11T10:30:06.040Z,14.05
2023-04-11T10:31:06.180Z,14.09
2023-04-11T10:32:06.065Z,14.14
2023-04-11T10:33:06.105Z,14.19
2023-04-11T10:34:06.110Z,14.12
2023-04-11T10:35:06.089Z,14.06
2023-04-11T10:36:06.221Z,14.03
2023-04-11T10:37:06.132Z,13.88
2023-04-11T10:38:06.076Z,13.91
2023-04-11T10:39:06.103Z,14.00
2023-04-11T10:40:06.057Z,14.10
2023-04-11T10:41:06.080Z,14.20
2023-04-11T10:42:06.120Z,14.31
2023-04-11T10:43:06.074Z,14.39
2023-04-11T10:44:06.120Z,14.47
2023-04-11T10:45:06.100Z,14.52
2023-04-11T10:46:06.113Z,14.60
2023-04-11T10:47:06.166Z,14.67
2023-04-11T10:48:06.115Z,14.70
2023-04-11T10:49:06.158Z,14.71
2023-04-11T10:50:06.129Z,14.73
2023-04-11T10:51:09.185Z,14.70
2023-04-11T10:52:06.151Z,14.72
2023-04-11T10:53:06.134Z,14.65
2023-04-11T10:55:06.142Z,14.66
2023-04-11T10:56:06.112Z,14.71
2023-04-11T10:57:06.151Z,14.73
2023-04-11T10:58:06.128Z,14.75
2023-04-11T10:59:06.144Z,14.72
2023-04-11T11:01:06.181Z,14.70
2023-04-11T11:02:06.150Z,14.72
2023-04-11T11:03:06.256Z,14.75
2023-04-11T11:05:06.272Z,14.78
2023-04-11T11:06:06.146Z,14.76
2023-04-11T11:07:06.151Z,14.79
2023-04-11T11:08:06.181Z,14.81
2023-04-11T11:09:06.156Z,14.86
2023-04-11T11:10:06.192Z,14.88
2023-04-11T11:12:06.268Z,14.91
2023-04-11T11:13:06.208Z,14.92
2023-04-11T11:14:06.170Z,14.89
2023-04-11T11:15:06.177Z,14.81
2023-04-11T11:16:06.236Z,14.73
2023-04-11T11:17:06.179Z,14.63
2023-04-11T11:18:06.242Z,14.52
2023-04-11T11:19:06.152Z,14.49
2023-04-11T11:20:06.181Z,14.41
2023-04-11T11:21:09.290Z,14.40
2023-04-11T11:22:06.188Z,14.38
2023-04-11T11:23:06.179Z,14.34
2023-04-11T11:24:06.230Z,14.27
2023-04-11T11:25:06.202Z,14.28
2023-04-11T11:26:06.214Z,14.30
2023-04-11T11:28:09.378Z,14.28
2023-04-11T11:29:06.253Z,14.29
2023-04-11T11:30:06.203Z,14.28
2023-04-11T11:31:06.255Z,14.29
2023-04-11T11:32:06.273Z,14.27
2023-04-11T11:33:06.258Z,14.20
2023-04-11T11:34:22.113Z,14.07
2023-04-11T11:35:06.224Z,13.87
2023-04-11T11:36:06.209Z,13.80
2023-04-11T11:37:06.218Z,13.76
2023-04-11T11:38:06.234Z,13.71
2023-04-11T11:39:06.265Z,13.59
2023-04-11T11:40:06.230Z,13.53
2023-04-11T11:41:06.244Z,13.45
2023-04-11T11:42:06.266Z,13.36
2023-04-11T11:43:06.221Z,13.31
2023-04-11T11:44:06.254Z,13.30
2023-04-11T11:45:06.284Z,13.31
2023-04-11T11:46:07.188Z,13.23
2023-04-11T11:47:06.353Z,13.16
2023-04-11T11:48:06.283Z,13.02
2023-04-11T11:49:06.248Z,12.91
2023-04-11T11:50:06.318Z,12.89
2023-04-11T11:51:06.241Z,12.88
2023-04-11T11:52:06.294Z,12.85
2023-04-11T11:53:06.284Z,12.83
2023-04-11T11:54:06.257Z,12.79
2023-04-11T11:55:08.036Z,12.81
2023-04-11T11:56:06.270Z,12.87
2023-04-11T11:57:06.280Z,12.95
2023-04-11T11:58:06.306Z,13.00
2023-04-11T11:59:06.299Z,13.07
2023-04-11T12:00:06.331Z,13.08
2023-04-11T12:01:06.302Z,13.07
2023-04-11T12:02:06.407Z,13.08
2023-04-11T12:04:06.443Z,13.13
2023-04-11T12:05:09.690Z,13.19
2023-04-11T12:06:06.343Z,13.20
2023-04-11T12:07:06.316Z,13.22
2023-04-11T12:08:06.389Z,13.25
2023-04-11T12:09:06.300Z,13.33
2023-04-11T12:10:06.331Z,13.35
2023-04-11T12:11:06.343Z,13.32
2023-04-11T12:12:06.321Z,13.27
2023-04-11T12:13:06.328Z,13.10
2023-04-11T12:14:06.345Z,12.91
2023-04-11T12:15:06.308Z,12.89
2023-04-11T12:16:06.401Z,12.85
2023-04-11T12:18:06.359Z,12.95
2023-04-11T12:19:06.371Z,12.97
2023-04-11T12:20:06.323Z,12.99
2023-04-11T12:21:06.358Z,13.02
2023-04-11T12:22:06.356Z,13.01
2023-04-11T12:23:06.359Z,12.96
2023-04-11T12:24:06.387Z,12.90
2023-04-11T12:25:06.351Z,12.93
2023-04-11T12:26:06.365Z,12.92
2023-04-11T12:27:07.699Z,12.86
2023-04-11T12:28:06.346Z,12.89
2023-04-11T12:29:06.379Z,12.97
2023-04-11T12:30:06.409Z,13.07
2023-04-11T12:31:06.447Z,13.13
2023-04-11T12:32:06.401Z,13.18
2023-04-11T12:33:06.466Z,13.25
2023-04-11T12:34:06.421Z,13.24
2023-04-11T12:35:06.411Z,13.26
2023-04-11T12:36:06.380Z,13.36
2023-04-11T12:37:06.407Z,13.44
2023-04-11T12:38:06.385Z,13.56
2023-04-11T12:39:06.378Z,13.69
2023-04-11T12:40:06.434Z,13.82
2023-04-11T12:41:30.377Z,13.90
2023-04-11T12:42:10.094Z,13.95
2023-04-11T12:43:06.380Z,14.04
2023-04-11T12:44:06.404Z,14.10
2023-04-11T12:45:06.447Z,14.16
2023-04-11T12:46:06.490Z,14.20
2023-04-11T12:47:06.517Z,14.29
2023-04-11T12:48:06.444Z,14.38
2023-04-11T12:49:06.404Z,14.46
2023-04-11T12:50:06.469Z,14.43
2023-04-11T12:51:06.405Z,14.44
2023-04-11T12:52:06.410Z,14.36
2023-04-11T12:53:06.456Z,14.20
2023-04-11T12:54:06.407Z,14.25
2023-04-11T12:55:06.447Z,14.28
2023-04-11T12:56:06.425Z,14.33
2023-04-11T12:57:06.426Z,14.37
2023-04-11T12:59:06.427Z,14.42
2023-04-11T13:00:06.444Z,14.38
2023-04-11T13:01:06.489Z,14.36
2023-04-11T13:02:06.546Z,14.43
2023-04-11T13:03:06.657Z,14.52
2023-04-11T13:04:06.705Z,14.65
2023-04-11T13:05:06.508Z,14.75
2023-04-11T13:06:06.472Z,14.69
2023-04-11T13:07:06.454Z,14.63
2023-04-11T13:08:06.480Z,14.54
2023-04-11T13:09:07.591Z,14.56
2023-04-11T13:10:06.487Z,14.43
2023-04-11T13:11:06.492Z,14.39
2023-04-11T13:12:06.457Z,14.32
2023-04-11T13:13:17.564Z,14.29
2023-04-11T13:14:06.497Z,14.38
2023-04-11T13:15:06.475Z,14.50
2023-04-11T13:16:06.527Z,14.62
2023-04-11T13:17:06.498Z,14.66
2023-04-11T13:19:10.077Z,14.63
2023-04-11T13:20:06.525Z,14.65
2023-04-11T13:21:06.466Z,14.60
2023-04-11T13:22:06.538Z,14.59
2023-04-11T13:23:06.551Z,14.48
2023-04-11T13:24:06.528Z,14.46
2023-04-11T13:25:06.519Z,14.40
2023-04-11T13:26:06.504Z,14.38
2023-04-11T13:27:06.533Z,14.44
2023-04-11T13:28:06.499Z,14.38
2023-04-11T13:29:06.533Z,14.49
2023-04-11T13:30:06.592Z,14.64
2023-04-11T13:31:06.520Z,14.82
2023-04-11T13:32:06.566Z,14.89
2023-04-11T13:33:06.550Z,14.94
2023-04-11T13:34:06.512Z,15.04
2023-04-11T13:35:06.528Z,14.97
2023-04-11T13:36:06.530Z,14.91
2023-04-11T13:37:06.620Z,14.84
2023-04-11T13:38:06.573Z,14.89
2023-04-11T13:39:06.547Z,14.94
2023-04-11T13:40:06.592Z,14.99
2023-04-11T13:41:06.685Z,14.97
2023-04-11T13:42:06.554Z,14.94
2023-04-11T13:43:06.600Z,14.82
2023-04-11T13:44:06.540Z,14.80
2023-04-11T13:45:06.620Z,14.90
2023-04-11T13:46:06.628Z,14.91
2023-04-11T13:47:06.572Z,14.85
2023-04-11T13:48:06.617Z,14.91
2023-04-11T13:49:06.572Z,14.89
2023-04-11T13:50:06.585Z,14.92
2023-04-11T13:51:06.608Z,14.86
2023-04-11T13:52:06.580Z,14.87
2023-04-11T13:53:06.626Z,14.81
2023-04-11T13:54:06.561Z,14.79
2023-04-11T13:55:06.611Z,14.80
2023-04-11T13:56:10.268Z,14.83
2023-04-11T13:57:06.593Z,14.87